createdAt,value
2019-03-28T00:01:07.865Z,24.23
2019-03-28T00:03:42.172Z,26.27
2019-03-28T00:06:16.534Z,23.53
2019-03-28T00:08:51.132Z,24.50
2019-03-28T00:11:25.509Z,25.30
2019-03-28T00:13:59.844Z,25.43
2019-03-28T00:16:34.130Z,24.67
2019-03-28T00:19:08.470Z,25.10
2019-03-28T00:21:42.755Z,28.50
2019-03-28T00:24:26.894Z,25.87
2019-03-28T00:27:01.185Z,27.27
2019-03-28T00:29:35.504Z,27.90
2019-03-28T00:32:09.796Z,28.57
2019-03-28T00:34:44.421Z,28.63
2019-03-28T00:37:19.046Z,29.00
2019-03-28T00:39:53.428Z,30.60
2019-03-28T00:42:27.727Z,28.90
2019-03-28T00:45:02.570Z,30.33
2019-03-28T00:47:36.862Z,31.73
2019-03-28T00:50:11.807Z,30.80
2019-03-28T00:52:46.253Z,28.80
2019-03-28T00:55:20.574Z,32.83
2019-03-28T00:57:56.000Z,34.17
2019-03-28T01:00:30.473Z,32.60
2019-03-28T01:03:04.852Z,30.37
2019-03-28T01:05:39.216Z,30.53
2019-03-28T01:08:13.608Z,31.50
2019-03-28T01:10:48.009Z,31.83
2019-03-28T01:13:22.301Z,34.00
2019-03-28T01:15:56.868Z,32.43
2019-03-28T01:18:31.159Z,34.03
2019-03-28T01:21:06.157Z,35.20
2019-03-28T01:23:40.717Z,32.87
2019-03-28T01:26:15.037Z,32.57
2019-03-28T01:28:49.330Z,33.50
2019-03-28T01:31:23.652Z,32.27
2019-03-28T01:33:57.947Z,32.47
2019-03-28T01:36:32.343Z,33.67
2019-03-28T01:39:07.289Z,32.57
2019-03-28T01:41:41.604Z,30.33
2019-03-28T01:44:15.897Z,30.90
2019-03-28T01:46:50.471Z,29.47
2019-03-28T01:49:25.102Z,29.37
2019-03-28T01:51:59.443Z,32.50
2019-03-28T01:54:33.727Z,32.37
2019-03-28T01:57:11.196Z,29.90
2019-03-28T01:59:44.607Z,29.13
2019-03-28T02:02:18.923Z,30.60
2019-03-28T02:04:53.293Z,31.00
2019-03-28T02:07:27.604Z,26.80
2019-03-28T02:10:01.914Z,32.30
2019-03-28T02:12:36.498Z,28.23
2019-03-28T02:15:10.944Z,31.83
2019-03-28T02:17:45.562Z,29.73
2019-03-28T02:20:19.931Z,31.60
2019-03-28T02:22:54.290Z,32.23
2019-03-28T02:25:28.527Z,29.57
2019-03-28T02:28:02.877Z,30.57
2019-03-28T02:30:37.164Z,31.00
2019-03-28T02:33:11.500Z,30.20
2019-03-28T02:35:45.863Z,26.80
2019-03-28T02:38:20.224Z,27.87
2019-03-28T02:40:54.596Z,29.70
2019-03-28T02:43:29.027Z,29.90
2019-03-28T02:46:03.311Z,29.57
2019-03-28T02:48:37.654Z,27.40
2019-03-28T02:51:11.943Z,26.40
2019-03-28T02:53:46.257Z,26.53
2019-03-28T02:56:20.544Z,26.90
2019-03-28T02:58:54.903Z,23.33
2019-03-28T03:01:31.076Z,25.40
2019-03-28T03:04:05.473Z,27.00
2019-03-28T03:06:39.758Z,26.97
2019-03-28T03:09:14.085Z,26.30
2019-03-28T03:11:48.376Z,26.37
2019-03-28T03:14:22.742Z,25.07
2019-03-28T03:16:57.408Z,25.17
2019-03-28T03:19:31.751Z,27.03
2019-03-28T03:22:06.041Z,27.13
2019-03-28T03:24:40.620Z,26.43
2019-03-28T03:27:14.910Z,24.93
2019-03-28T03:29:49.251Z,24.27
2019-03-28T03:32:23.547Z,25.83
2019-03-28T03:34:57.959Z,24.63
2019-03-28T03:37:32.252Z,25.10
2019-03-28T03:40:07.795Z,24.37
2019-03-28T03:42:42.770Z,24.67
2019-03-28T03:45:17.133Z,24.03
2019-03-28T03:47:51.750Z,25.30
2019-03-28T03:50:28.372Z,23.37
2019-03-28T03:53:02.664Z,24.70
2019-03-28T03:55:37.021Z,28.00
2019-03-28T03:58:15.945Z,26.87
2019-03-28T04:00:47.341Z,26.80
2019-03-28T04:03:21.631Z,25.80
2019-03-28T04:05:56.237Z,23.17
2019-03-28T04:08:30.517Z,27.83
2019-03-28T04:11:04.970Z,24.43
2019-03-28T04:13:39.251Z,26.50
2019-03-28T04:16:13.566Z,27.87
2019-03-28T04:18:48.154Z,26.53
2019-03-28T04:21:22.492Z,25.90
2019-03-28T04:23:56.791Z,28.17
2019-03-28T04:26:31.723Z,28.37
2019-03-28T04:29:06.087Z,27.43
2019-03-28T04:31:40.764Z,27.57
2019-03-28T04:34:15.060Z,28.77
2019-03-28T04:36:49.559Z,30.50
2019-03-28T04:39:23.845Z,28.63
2019-03-28T04:41:58.176Z,28.03
2019-03-28T04:44:32.753Z,26.67
2019-03-28T04:47:07.104Z,27.97
2019-03-28T04:49:41.403Z,31.83
2019-03-28T04:52:15.737Z,29.97
2019-03-28T04:54:50.038Z,30.17
2019-03-28T04:57:24.714Z,29.07
2019-03-28T04:59:59.609Z,31.00
2019-03-28T05:02:33.949Z,31.27
2019-03-28T05:05:08.989Z,28.00
2019-03-28T05:07:43.308Z,30.13
2019-03-28T05:10:17.686Z,30.90
2019-03-28T05:12:52.010Z,31.40
2019-03-28T05:15:26.309Z,36.80
2019-03-28T05:18:01.570Z,32.63
2019-03-28T05:20:35.874Z,29.93
2019-03-28T05:23:10.202Z,32.60
2019-03-28T05:25:44.488Z,33.77
2019-03-28T05:28:19.350Z,32.60
2019-03-28T05:30:53.643Z,33.43
2019-03-28T05:33:27.964Z,32.07
2019-03-28T05:36:04.462Z,31.70
2019-03-28T05:38:39.306Z,29.73
2019-03-28T05:41:13.744Z,31.40
2019-03-28T05:43:48.096Z,28.87
2019-03-28T05:46:22.390Z,30.17
2019-03-28T05:48:57.025Z,31.00
2019-03-28T05:51:31.319Z,30.90
2019-03-28T05:54:05.650Z,33.07
2019-03-28T05:56:39.945Z,30.57
2019-03-28T05:59:14.270Z,28.73
2019-03-28T06:01:48.561Z,31.57
2019-03-28T06:04:23.125Z,29.37
2019-03-28T06:06:58.474Z,31.73
2019-03-28T06:09:32.811Z,30.83
2019-03-28T06:12:07.179Z,28.93
2019-03-28T06:14:42.041Z,27.10
2019-03-28T06:17:16.322Z,27.87
2019-03-28T06:19:50.984Z,27.03
2019-03-28T06:22:25.277Z,27.07
2019-03-28T06:24:59.614Z,26.03
2019-03-28T06:27:34.182Z,26.73
2019-03-28T06:30:09.880Z,24.80
2019-03-28T06:32:44.172Z,23.93
2019-03-28T06:35:21.740Z,23.60
2019-03-28T06:37:54.913Z,24.33
2019-03-28T06:40:29.296Z,26.30
2019-03-28T06:43:03.674Z,25.80
2019-03-28T06:45:38.254Z,24.07
2019-03-28T06:48:12.534Z,25.00
2019-03-28T06:50:47.197Z,23.37
2019-03-28T06:53:21.488Z,22.90
2019-03-28T06:55:56.083Z,24.50
2019-03-28T06:58:30.383Z,21.10
2019-03-28T07:01:04.737Z,18.57
2019-03-28T07:03:39.104Z,17.03
2019-03-28T07:06:14.512Z,18.40
2019-03-28T07:08:48.941Z,17.30
2019-03-28T07:11:23.293Z,16.43
2019-03-28T07:13:57.617Z,15.60
2019-03-28T07:16:31.964Z,14.50
2019-03-28T07:19:06.266Z,17.10
2019-03-28T07:21:40.621Z,16.37
2019-03-28T07:24:14.993Z,18.47
2019-03-28T07:26:49.358Z,18.37
2019-03-28T07:29:23.658Z,18.27
2019-03-28T07:31:57.998Z,18.20
2019-03-28T07:34:32.538Z,19.27
2019-03-28T07:37:06.942Z,18.23
2019-03-28T07:39:41.540Z,19.90
2019-03-28T07:42:15.867Z,16.50
2019-03-28T07:44:50.176Z,18.70
2019-03-28T07:47:24.565Z,17.87
2019-03-28T07:49:58.853Z,18.60
2019-03-28T07:52:33.200Z,20.60
2019-03-28T07:55:08.631Z,19.07
2019-03-28T07:57:42.999Z,19.87
2019-03-28T08:00:17.903Z,19.50
2019-03-28T08:02:52.259Z,17.87
2019-03-28T08:05:26.558Z,20.10
2019-03-28T08:08:01.122Z,19.90
2019-03-28T08:10:35.663Z,17.80
2019-03-28T08:13:10.027Z,21.00
2019-03-28T08:15:44.771Z,22.83
2019-03-28T08:18:19.571Z,21.63
2019-03-28T08:20:54.107Z,21.93
2019-03-28T08:23:28.539Z,21.50
2019-03-28T08:26:02.891Z,23.10
2019-03-28T08:28:37.223Z,25.27
2019-03-28T08:31:11.878Z,21.70
2019-03-28T08:33:46.855Z,19.80
2019-03-28T08:36:21.213Z,21.00
2019-03-28T08:38:56.903Z,18.77
2019-03-28T08:41:31.557Z,19.07
2019-03-28T08:44:07.412Z,19.80
2019-03-28T08:46:41.807Z,18.63
2019-03-28T08:49:16.165Z,23.13
2019-03-28T08:51:50.777Z,22.40
2019-03-28T08:54:25.103Z,21.00
2019-03-28T08:56:59.776Z,21.70
2019-03-28T08:59:34.106Z,21.73
2019-03-28T09:02:08.485Z,17.77
2019-03-28T09:04:42.828Z,17.30
2019-03-28T09:07:17.622Z,17.03
2019-03-28T09:09:52.342Z,16.60
2019-03-28T09:12:27.491Z,16.23
2019-03-28T09:15:01.959Z,15.70
2019-03-28T09:17:36.674Z,16.57
2019-03-28T09:20:11.304Z,17.50
2019-03-28T09:22:46.232Z,17.27
2019-03-28T09:25:20.608Z,16.73
2019-03-28T09:27:54.924Z,16.30
2019-03-28T09:30:47.907Z,17.27
2019-03-28T09:33:13.847Z,15.97
2019-03-28T09:35:48.563Z,15.90
2019-03-28T09:38:22.817Z,15.73
2019-03-28T09:40:57.189Z,14.83
2019-03-28T09:43:31.475Z,17.30
2019-03-28T09:46:05.917Z,17.07
2019-03-28T09:48:40.455Z,17.90
2019-03-28T09:51:14.945Z,15.07
2019-03-28T09:53:49.538Z,16.27
2019-03-28T09:56:23.884Z,14.73
2019-03-28T09:59:00.325Z,14.90
2019-03-28T10:01:34.600Z,16.73
2019-03-28T10:04:08.960Z,15.87
2019-03-28T10:06:43.760Z,16.23
2019-03-28T10:09:18.066Z,15.53
2019-03-28T10:11:52.467Z,16.17
2019-03-28T10:14:27.751Z,14.80
2019-03-28T10:17:02.471Z,15.00
2019-03-28T10:19:36.767Z,15.30
2019-03-28T10:22:11.091Z,13.50
2019-03-28T10:24:45.728Z,14.20
2019-03-28T10:27:20.094Z,12.83
2019-03-28T10:29:54.476Z,16.30
2019-03-28T10:32:28.827Z,15.03
2019-03-28T10:35:06.724Z,14.70
2019-03-28T10:37:39.748Z,14.07
2019-03-28T10:40:14.326Z,15.40
2019-03-28T10:42:48.655Z,12.50
2019-03-28T10:45:22.959Z,11.03
2019-03-28T10:47:57.310Z,11.93
2019-03-28T10:50:40.818Z,11.63
2019-03-28T10:53:07.754Z,10.40
2019-03-28T10:55:42.654Z,13.13
2019-03-28T10:58:19.505Z,12.97
2019-03-28T11:00:54.712Z,12.63
2019-03-28T11:03:30.327Z,13.43
2019-03-28T11:06:07.538Z,13.17
2019-03-28T11:08:42.668Z,12.37
2019-03-28T11:11:17.592Z,11.23
2019-03-28T11:13:51.943Z,11.23
2019-03-28T11:16:26.663Z,12.80
2019-03-28T11:19:00.999Z,13.50
2019-03-28T11:21:35.309Z,13.50
2019-03-28T11:24:09.765Z,12.63
2019-03-28T11:26:44.060Z,13.93
2019-03-28T11:29:18.410Z,12.47
2019-03-28T11:31:53.029Z,12.70
2019-03-28T11:34:27.751Z,12.67
2019-03-28T11:37:02.045Z,12.70
2019-03-28T11:39:36.672Z,11.83
2019-03-28T11:42:11.241Z,11.87
2019-03-28T11:44:45.899Z,10.37
2019-03-28T11:47:22.194Z,11.20
2019-03-28T11:49:56.809Z,11.77
2019-03-28T11:52:31.283Z,11.00
2019-03-28T11:55:06.435Z,11.37
2019-03-28T11:57:40.889Z,10.80
2019-03-28T12:00:16.931Z,11.63
2019-03-28T12:02:51.397Z,11.40
2019-03-28T12:05:25.795Z,10.03
2019-03-28T12:08:00.212Z,10.80
2019-03-28T12:10:35.057Z,9.73
2019-03-28T12:13:09.686Z,11.17
2019-03-28T12:15:44.164Z,10.13
2019-03-28T12:18:18.659Z,8.80
2019-03-28T12:20:53.094Z,10.60
2019-03-28T12:23:27.467Z,10.73
2019-03-28T12:26:01.864Z,11.03
2019-03-28T12:28:36.217Z,10.60
2019-03-28T12:31:10.837Z,10.80
2019-03-28T12:33:45.276Z,10.97
2019-03-28T12:36:19.695Z,12.10
2019-03-28T12:38:54.722Z,10.43
2019-03-28T12:41:29.263Z,10.20
2019-03-28T12:44:04.021Z,9.73
2019-03-28T12:46:38.404Z,10.70
2019-03-28T12:49:12.775Z,10.03
2019-03-28T12:51:47.230Z,9.03
2019-03-28T12:54:21.576Z,9.13
2019-03-28T12:56:58.140Z,10.30
2019-03-28T12:59:33.765Z,11.17
2019-03-28T13:02:08.288Z,11.27
2019-03-28T13:04:42.651Z,9.80
2019-03-28T13:07:17.133Z,9.73
2019-03-28T13:09:51.607Z,8.70
2019-03-28T13:12:26.020Z,9.13
2019-03-28T13:15:00.467Z,10.30
2019-03-28T13:17:34.947Z,10.40
2019-03-28T13:20:09.923Z,9.20
2019-03-28T13:22:44.539Z,10.53
2019-03-28T13:25:18.911Z,11.43
2019-03-28T13:27:53.285Z,9.67
2019-03-28T13:30:27.649Z,9.27
2019-03-28T13:33:02.002Z,10.20
2019-03-28T13:35:36.276Z,9.37
2019-03-28T13:38:10.582Z,10.03
2019-03-28T13:40:44.865Z,9.93
2019-03-28T13:43:19.416Z,11.13
2019-03-28T13:45:53.729Z,10.43
2019-03-28T13:48:28.096Z,10.73
2019-03-28T13:51:02.422Z,8.73
2019-03-28T13:53:39.654Z,8.97
2019-03-28T13:56:13.199Z,11.10
2019-03-28T13:58:47.765Z,9.97
2019-03-28T14:01:22.644Z,9.90
2019-03-28T14:03:57.214Z,8.80
2019-03-28T14:06:31.535Z,9.73
2019-03-28T14:09:07.649Z,10.23
2019-03-28T14:11:41.967Z,9.13
2019-03-28T14:14:16.746Z,9.40
2019-03-28T14:16:53.192Z,9.40
2019-03-28T14:19:27.262Z,11.27
2019-03-28T14:22:01.832Z,10.17
2019-03-28T14:24:36.171Z,9.93
2019-03-28T14:27:10.477Z,10.87
2019-03-28T14:29:44.866Z,10.23
2019-03-28T14:32:19.155Z,10.97
2019-03-28T14:34:53.595Z,9.93
2019-03-28T14:37:28.345Z,11.33
2019-03-28T14:40:03.057Z,11.50
2019-03-28T14:42:37.402Z,11.17
2019-03-28T14:45:12.393Z,10.70
2019-03-28T14:47:46.670Z,10.20
2019-03-28T14:50:34.575Z,10.13
2019-03-28T14:53:09.111Z,9.87
2019-03-28T14:55:43.903Z,10.63
2019-03-28T14:58:21.722Z,8.17
2019-03-28T15:00:54.818Z,8.33
2019-03-28T15:03:29.334Z,8.20
2019-03-28T15:06:03.772Z,8.10
2019-03-28T15:08:38.301Z,8.20
2019-03-28T15:11:12.651Z,9.03
2019-03-28T15:13:46.964Z,8.70
2019-03-28T15:16:21.245Z,8.07
2019-03-28T15:18:56.040Z,8.03
2019-03-28T15:21:30.306Z,8.10
2019-03-28T15:24:05.699Z,10.13
2019-03-28T15:26:40.081Z,9.37
2019-03-28T15:29:14.356Z,10.13
2019-03-28T15:31:48.722Z,9.30
2019-03-28T15:34:23.027Z,9.10
2019-03-28T15:36:57.358Z,9.10
2019-03-28T15:39:31.902Z,9.30
2019-03-28T15:42:06.316Z,9.27
2019-03-28T15:44:40.545Z,9.60
2019-03-28T15:47:14.823Z,8.80
2019-03-28T15:49:49.363Z,11.00
2019-03-28T15:52:23.627Z,10.37
2019-03-28T15:54:57.872Z,9.87
2019-03-28T15:57:32.142Z,9.53
2019-03-28T16:00:07.513Z,8.37
2019-03-28T16:02:41.850Z,9.63
2019-03-28T16:05:16.350Z,9.30
2019-03-28T16:07:50.922Z,9.67
2019-03-28T16:10:25.157Z,9.90
2019-03-28T16:12:59.518Z,8.47
2019-03-28T16:15:34.116Z,8.40
2019-03-28T16:18:08.691Z,9.10
2019-03-28T16:20:42.921Z,13.07
2019-03-28T16:23:17.459Z,10.07
2019-03-28T16:25:51.755Z,9.40
2019-03-28T16:28:28.121Z,8.93
2019-03-28T16:31:02.048Z,8.93
2019-03-28T16:33:36.334Z,8.97
2019-03-28T16:36:10.551Z,9.57
2019-03-28T16:38:45.728Z,8.30
2019-03-28T16:41:20.219Z,8.07
2019-03-28T16:43:54.470Z,9.30
2019-03-28T16:46:28.700Z,9.60
2019-03-28T16:49:03.106Z,9.90
2019-03-28T16:51:37.414Z,9.53
2019-03-28T16:54:11.670Z,9.40
2019-03-28T16:56:45.909Z,9.87
2019-03-28T16:59:20.285Z,8.40
2019-03-28T17:01:54.770Z,7.93
2019-03-28T17:04:29.050Z,9.10
2019-03-28T17:07:04.058Z,9.53
2019-03-28T17:09:39.802Z,9.53
2019-03-28T17:12:14.031Z,10.23
2019-03-28T17:14:48.639Z,9.70
2019-03-28T17:17:22.939Z,9.73
2019-03-28T17:19:57.261Z,10.03
2019-03-28T17:22:31.492Z,8.13
2019-03-28T17:25:06.421Z,9.30
2019-03-28T17:27:41.000Z,11.83
2019-03-28T17:30:15.772Z,9.10
2019-03-28T17:32:50.067Z,8.97
2019-03-28T17:35:24.327Z,9.53
2019-03-28T17:37:58.560Z,9.37
2019-03-28T17:40:32.834Z,9.37
2019-03-28T17:43:07.322Z,10.37
2019-03-28T17:45:41.699Z,8.33
2019-03-28T17:48:16.028Z,11.20
2019-03-28T17:50:50.315Z,10.87
2019-03-28T17:53:24.935Z,8.90
2019-03-28T17:55:59.577Z,10.80
2019-03-28T17:58:33.812Z,9.70
2019-03-28T18:01:08.319Z,10.23
2019-03-28T18:03:42.569Z,9.60
2019-03-28T18:06:16.933Z,9.50
2019-03-28T18:08:51.181Z,11.47
2019-03-28T18:11:25.454Z,9.33
2019-03-28T18:13:59.690Z,11.27
2019-03-28T18:16:34.259Z,11.00
2019-03-28T18:19:08.506Z,12.43
2019-03-28T18:21:42.821Z,18.10
2019-03-28T18:24:17.072Z,12.60
2019-03-28T18:26:51.883Z,11.07
2019-03-28T18:29:27.699Z,11.40
2019-03-28T18:32:02.111Z,10.63
2019-03-28T18:34:36.363Z,10.57
2019-03-28T18:37:10.966Z,10.20
2019-03-28T18:39:45.198Z,9.40
2019-03-28T18:42:19.476Z,9.27
2019-03-28T18:44:53.999Z,10.40
2019-03-28T18:47:28.281Z,9.93
2019-03-28T18:50:03.779Z,10.67
2019-03-28T18:52:38.369Z,11.33
2019-03-28T18:55:12.910Z,11.10
2019-03-28T18:57:47.508Z,10.93
2019-03-28T19:00:22.043Z,10.93
2019-03-28T19:02:56.400Z,10.67
2019-03-28T19:05:30.959Z,11.60
2019-03-28T19:08:05.413Z,10.00
2019-03-28T19:10:39.913Z,9.27
2019-03-28T19:13:14.226Z,10.87
2019-03-28T19:15:49.227Z,11.93
2019-03-28T19:18:24.234Z,12.20
2019-03-28T19:20:58.470Z,12.40
2019-03-28T19:23:32.982Z,10.83
2019-03-28T19:26:10.592Z,11.10
2019-03-28T19:28:43.393Z,11.10
2019-03-28T19:31:17.981Z,11.23
2019-03-28T19:33:52.817Z,14.93
2019-03-28T19:36:27.807Z,12.07
2019-03-28T19:39:02.267Z,11.60
2019-03-28T19:41:36.507Z,12.63
2019-03-28T19:44:10.895Z,14.60
2019-03-28T19:46:45.142Z,13.70
2019-03-28T19:49:19.537Z,13.00
2019-03-28T19:51:53.790Z,12.43
2019-03-28T19:54:28.077Z,13.07
2019-03-28T19:57:02.323Z,13.90
2019-03-28T19:59:36.634Z,13.50
2019-03-28T20:02:14.121Z,15.17
2019-03-28T20:04:47.068Z,12.40
2019-03-28T20:07:23.100Z,15.60
2019-03-28T20:09:57.603Z,13.47
2019-03-28T20:12:32.041Z,13.03
2019-03-28T20:15:08.095Z,14.20
2019-03-28T20:17:43.230Z,16.77
2019-03-28T20:20:18.302Z,17.20
2019-03-28T20:22:52.612Z,14.70
2019-03-28T20:25:27.070Z,12.80
2019-03-28T20:28:01.304Z,13.60
2019-03-28T20:30:35.939Z,13.70
2019-03-28T20:33:11.840Z,13.10
2019-03-28T20:36:01.917Z,12.77
2019-03-28T20:38:22.359Z,14.53
2019-03-28T20:40:58.441Z,13.20
2019-03-28T20:43:32.980Z,14.73
2019-03-28T20:46:07.271Z,14.97
2019-03-28T20:48:42.168Z,13.77
2019-03-28T20:51:17.534Z,14.07
2019-03-28T20:53:51.767Z,14.33
2019-03-28T20:56:26.230Z,15.27
2019-03-28T20:59:00.481Z,14.50
2019-03-28T21:01:34.774Z,14.03
2019-03-28T21:04:09.014Z,13.00
2019-03-28T21:06:44.470Z,12.97
2019-03-28T21:09:18.717Z,13.50
2019-03-28T21:11:53.012Z,14.73
2019-03-28T21:14:28.029Z,16.17
2019-03-28T21:17:02.252Z,17.93
2019-03-28T21:19:36.493Z,19.23
2019-03-28T21:22:10.779Z,19.83
2019-03-28T21:24:45.026Z,20.97
2019-03-28T21:27:20.797Z,23.90
2019-03-28T21:29:55.195Z,23.40
2019-03-28T21:32:29.536Z,22.80
2019-03-28T21:35:04.790Z,17.53
2019-03-28T21:37:39.055Z,18.93
2019-03-28T21:40:13.995Z,16.80
2019-03-28T21:42:48.638Z,16.40
2019-03-28T21:45:23.054Z,17.47
2019-03-28T21:47:57.341Z,16.33
2019-03-28T21:50:31.587Z,17.70
2019-03-28T21:53:06.929Z,19.20
2019-03-28T21:55:54.518Z,18.30
2019-03-28T21:58:17.530Z,18.77
2019-03-28T22:00:51.773Z,19.10
2019-03-28T22:03:26.055Z,16.00
2019-03-28T22:06:00.894Z,17.77
2019-03-28T22:08:35.167Z,15.70
2019-03-28T22:11:09.413Z,17.60
2019-03-28T22:13:43.721Z,14.93
2019-03-28T22:16:17.934Z,14.63
2019-03-28T22:18:52.454Z,16.30
2019-03-28T22:21:27.486Z,16.90
2019-03-28T22:24:02.002Z,16.37
2019-03-28T22:26:36.241Z,15.40
2019-03-28T22:29:10.788Z,17.30
2019-03-28T22:31:45.025Z,18.03
2019-03-28T22:34:19.318Z,17.27
2019-03-28T22:36:57.537Z,15.87
2019-03-28T22:39:29.926Z,18.23
2019-03-28T22:42:04.242Z,16.03
2019-03-28T22:44:39.187Z,18.90
2019-03-28T22:47:13.420Z,17.53
2019-03-28T22:49:47.695Z,17.47
2019-03-28T22:52:21.934Z,17.40
2019-03-28T22:54:56.205Z,18.00
2019-03-28T22:57:30.448Z,15.37
2019-03-28T23:00:05.714Z,15.80
2019-03-28T23:02:40.894Z,17.17
2019-03-28T23:05:15.757Z,17.07
2019-03-28T23:07:50.001Z,16.30
2019-03-28T23:10:24.366Z,18.00
2019-03-28T23:12:58.588Z,15.73
2019-03-28T23:15:32.938Z,16.00
2019-03-28T23:18:07.197Z,17.53
2019-03-28T23:20:41.473Z,18.60
2019-03-28T23:23:15.704Z,19.60
2019-03-28T23:25:50.019Z,18.17
2019-03-28T23:28:24.249Z,21.50
2019-03-28T23:30:58.900Z,20.10
2019-03-28T23:33:33.540Z,19.23
2019-03-28T23:36:07.801Z,21.83
2019-03-28T23:38:42.301Z,18.83
2019-03-28T23:41:16.568Z,21.40
2019-03-28T23:43:50.805Z,20.40
2019-03-28T23:46:25.125Z,21.17
2019-03-28T23:48:59.644Z,20.73
2019-03-28T23:51:33.953Z,21.13
2019-03-28T23:54:08.369Z,21.10
2019-03-28T23:56:42.630Z,19.90
2019-03-28T23:59:16.863Z,20.13
